Time;durP1;ratioP1;P1;durP2;ratioP2;P2;SDS_P1;SDS_P2;PMS_P1;PMS_P2;Temp;Humidity;BMP_temperature;BMP_pressure;BME280_temperature;BME280_humidity;BME280_pressure;Samples;Min_cycle;Max_cycle;Signal;HPM_P1;HPM_P2
2023/12/04 00:01:49;;;;;;;1.58;1.20;;;9.60;76.60;;;;;;5012932;28;20102;-87
2023/12/04 00:04:15;;;;;;;2.08;1.10;;;9.60;77.10;;;;;;4992238;28;20054;-89
2023/12/04 00:06:42;;;;;;;1.48;1.38;;;9.60;76.60;;;;;;5006444;28;20038;-93
2023/12/04 00:09:08;;;;;;;3.22;1.48;;;9.60;76.60;;;;;;4996831;28;20029;-89
2023/12/04 00:11:35;;;;;;;2.03;1.50;;;9.60;76.70;;;;;;4993815;28;20057;-88
2023/12/04 00:14:03;;;;;;;2.85;1.77;;;9.60;76.60;;;;;;4991632;28;20483;-88
2023/12/04 00:16:35;;;;;;;3.08;1.50;;;9.60;76.60;;;;;;5011478;28;20032;-88
2023/12/04 00:19:01;;;;;;;1.58;1.15;;;9.60;77.20;;;;;;4985440;28;20596;-88
2023/12/04 00:21:30;;;;;;;2.33;1.40;;;9.60;76.60;;;;;;4992415;28;20400;-89
2023/12/04 00:23:57;;;;;;;2.65;1.35;;;9.60;76.60;;;;;;5013640;28;20049;-89
2023/12/04 00:26:24;;;;;;;1.63;1.38;;;9.60;76.60;;;;;;5014003;28;20030;-91
2023/12/04 00:28:49;;;;;;;1.60;1.50;;;9.60;76.60;;;;;;4995715;28;20061;-89
2023/12/04 00:31:15;;;;;;;1.92;1.33;;;9.60;76.60;;;;;;5011036;28;20357;-90
2023/12/04 00:33:42;;;;;;;3.35;1.30;;;9.60;76.60;;;;;;5011804;28;20026;-91
2023/12/04 00:36:10;;;;;;;1.33;1.17;;;9.60;76.60;;;;;;5011259;28;20355;-92
2023/12/04 00:38:36;;;;;;;1.83;1.15;;;9.70;76.70;;;;;;5014963;28;20132;-89
2023/12/04 00:41:02;;;;;;;2.00;1.15;;;9.70;76.70;;;;;;4993607;28;20733;-89
2023/12/04 00:43:29;;;;;;;2.38;1.33;;;9.70;76.70;;;;;;5009359;28;20125;-88
2023/12/04 00:45:56;;;;;;;1.77;1.33;;;9.70;76.70;;;;;;5010975;28;20037;-88
2023/12/04 00:48:22;;;;;;;1.65;1.27;;;9.70;76.70;;;;;;5010663;28;20476;-87
2023/12/04 00:50:48;;;;;;;3.50;1.58;;;9.70;76.70;;;;;;5008977;28;20036;-88
2023/12/04 00:53:14;;;;;;;2.28;1.30;;;9.70;76.70;;;;;;5006843;28;20113;-89
2023/12/04 00:55:40;;;;;;;1.77;1.30;;;9.70;76.60;;;;;;5011143;28;20523;-89
2023/12/04 00:58:07;;;;;;;1.65;1.30;;;9.70;76.60;;;;;;5011408;28;20045;-89
2023/12/04 01:00:33;;;;;;;1.73;1.30;;;9.70;76.60;;;;;;4979361;28;20041;-88
2023/12/04 01:03:02;;;;;;;2.35;1.40;;;9.70;76.60;;;;;;5010987;28;20052;-90
2023/12/04 01:05:29;;;;;;;2.45;1.35;;;9.70;76.60;;;;;;5010204;28;20077;-88
2023/12/04 01:07:55;;;;;;;1.83;1.10;;;9.70;76.60;;;;;;5014883;28;20025;-89
2023/12/04 01:10:21;;;;;;;1.65;1.20;;;9.70;76.50;;;;;;5012643;28;20038;-91
2023/12/04 01:12:48;;;;;;;2.20;1.35;;;9.80;76.70;;;;;;5012364;28;20053;-92
2023/12/04 01:15:14;;;;;;;1.20;1.10;;;9.70;76.50;;;;;;5012539;28;20064;-91
2023/12/04 01:17:41;;;;;;;1.85;1.20;;;9.70;76.50;;;;;;5011615;28;20326;-89
2023/12/04 01:20:07;;;;;;;1.90;1.13;;;9.70;76.50;;;;;;5009559;28;20030;-91
2023/12/04 01:22:34;;;;;;;2.50;1.52;;;9.80;76.70;;;;;;4996546;28;20097;-91
2023/12/04 01:25:04;;;;;;;1.73;1.05;;;9.70;76.50;;;;;;5014412;28;20123;-88
2023/12/04 01:27:31;;;;;;;2.00;1.08;;;9.70;76.50;;;;;;5005390;28;20416;-91
2023/12/04 01:29:59;;;;;;;2.08;1.20;;;9.70;76.50;;;;;;5005986;28;20030;-92
2023/12/04 01:32:26;;;;;;;1.55;1.15;;;9.70;76.40;;;;;;5009802;28;20029;-91
2023/12/04 01:34:53;;;;;;;2.10;1.10;;;9.70;76.50;;;;;;5010143;28;20026;-91
2023/12/04 01:37:20;;;;;;;2.45;1.35;;;9.80;76.60;;;;;;5009979;28;20476;-91
2023/12/04 01:39:48;;;;;;;1.27;1.17;;;9.70;76.40;;;;;;5009989;28;20026;-91
2023/12/04 01:42:15;;;;;;;2.28;1.15;;;9.70;76.40;;;;;;4996977;28;20149;-88
2023/12/04 01:44:41;;;;;;;1.40;1.30;;;9.70;76.40;;;;;;4974317;28;20026;-88
2023/12/04 01:47:07;;;;;;;1.58;1.00;;;9.70;76.40;;;;;;5007802;28;20044;-88
2023/12/04 01:49:33;;;;;;;1.88;1.15;;;9.70;76.40;;;;;;5006170;28;20399;-88
2023/12/04 01:52:01;;;;;;;1.67;1.10;;;9.70;76.40;;;;;;5005015;28;20041;-92
2023/12/04 01:54:30;;;;;;;1.98;0.88;;;9.70;76.40;;;;;;5008919;28;20033;-90
2023/12/04 01:56:56;;;;;;;1.58;0.98;;;9.80;76.60;;;;;;5012291;28;20084;-88
2023/12/04 01:59:22;;;;;;;1.08;0.98;;;9.80;76.60;;;;;;5007029;28;20133;-90
2023/12/04 02:01:49;;;;;;;1.00;0.90;;;9.70;76.40;;;;;;5010841;28;20030;-93
2023/12/04 02:04:15;;;;;;;1.42;1.05;;;9.70;76.40;;;;;;4977829;28;20038;-91
2023/12/04 02:06:42;;;;;;;1.02;0.88;;;9.70;76.40;;;;;;5002245;28;20029;-92
2023/12/04 02:09:12;;;;;;;1.02;0.77;;;9.80;76.60;;;;;;5010038;28;20029;-92
2023/12/04 02:11:40;;;;;;;1.02;0.93;;;9.80;76.60;;;;;;5003939;28;20487;-86
2023/12/04 02:14:08;;;;;;;1.92;1.00;;;9.80;76.60;;;;;;4992263;28;20124;-87
2023/12/04 02:16:40;;;;;;;1.35;0.90;;;9.80;76.60;;;;;;5007053;28;20038;-87
2023/12/04 02:19:12;;;;;;;1.42;0.90;;;9.80;76.50;;;;;;4992593;28;20037;-89
2023/12/04 02:21:38;;;;;;;2.80;1.25;;;9.80;76.60;;;;;;5011028;28;20033;-90
2023/12/04 02:24:04;;;;;;;3.00;0.63;;;9.70;76.30;;;;;;5008748;28;20421;-88
2023/12/04 02:26:39;;;;;;;3.10;1.00;;;9.80;76.50;;;;;;4981892;28;20192;-88
2023/12/04 02:29:13;;;;;;;3.28;0.80;;;9.80;76.50;;;;;;4978975;28;20172;-87
2023/12/04 02:31:41;;;;;;;1.45;0.70;;;9.80;76.60;;;;;;5010133;28;20138;-88
2023/12/04 02:34:08;;;;;;;1.63;0.60;;;9.80;76.60;;;;;;5009375;28;20042;-87
2023/12/04 02:36:36;;;;;;;1.00;0.77;;;9.80;76.60;;;;;;5011372;28;20025;-88
2023/12/04 02:39:02;;;;;;;1.20;0.60;;;9.80;76.60;;;;;;5010328;28;20042;-88
2023/12/04 02:41:29;;;;;;;1.30;0.93;;;9.80;76.60;;;;;;5008670;28;20038;-89
2023/12/04 02:43:57;;;;;;;1.17;0.80;;;9.80;76.60;;;;;;5011343;28;20435;-89
2023/12/04 02:46:24;;;;;;;1.77;0.88;;;9.80;76.70;;;;;;4993623;28;20034;-89
2023/12/04 02:48:50;;;;;;;1.10;0.75;;;9.80;76.70;;;;;;4995794;28;20054;-90
2023/12/04 02:51:17;;;;;;;1.83;0.90;;;9.80;76.70;;;;;;5008252;28;20060;-89
2023/12/04 02:53:43;;;;;;;0.90;0.75;;;9.90;76.90;;;;;;5005301;28;20482;-90
2023/12/04 02:56:11;;;;;;;1.10;0.80;;;9.90;76.90;;;;;;5019477;28;20030;-89
2023/12/04 02:58:39;;;;;;;1.65;0.60;;;9.90;76.90;;;;;;5021328;28;20120;-90
2023/12/04 03:01:05;;;;;;;1.00;0.77;;;9.90;76.90;;;;;;5023228;28;20116;-92
2023/12/04 03:03:31;;;;;;;1.58;0.70;;;9.90;76.90;;;;;;5015597;28;20399;-91
2023/12/04 03:05:57;;;;;;;3.33;0.75;;;10.00;77.10;;;;;;4996425;28;20056;-93
2023/12/04 03:08:24;;;;;;;3.25;0.57;;;9.90;76.90;;;;;;5019875;28;20045;-90
2023/12/04 03:10:50;;;;;;;1.10;1.00;;;10.00;77.10;;;;;;5017728;28;20033;-91
2023/12/04 03:13:16;;;;;;;1.80;1.00;;;10.00;77.10;;;;;;4999166;28;20020;-89
2023/12/04 03:15:43;;;;;;;2.55;1.13;;;10.00;77.10;;;;;;5018495;28;20022;-90
2023/12/04 03:18:09;;;;;;;2.47;1.17;;;10.00;77.10;;;;;;5000916;28;20107;-89
2023/12/04 03:20:36;;;;;;;1.58;0.90;;;10.00;77.10;;;;;;5016940;28;20022;-91
2023/12/04 03:23:03;;;;;;;3.63;1.38;;;10.00;77.10;;;;;;5011644;28;20069;-89
2023/12/04 03:25:30;;;;;;;4.07;1.00;;;10.00;77.10;;;;;;4996758;28;20377;-90
2023/12/04 03:27:56;;;;;;;3.47;1.05;;;10.00;77.10;;;;;;5015334;28;20030;-89
2023/12/04 03:30:24;;;;;;;4.25;1.05;;;10.00;77.10;;;;;;5010869;28;20049;-91
2023/12/04 03:32:51;;;;;;;4.15;1.20;;;10.00;77.10;;;;;;4996587;28;20433;-88
2023/12/04 03:35:17;;;;;;;4.72;1.10;;;10.00;77.10;;;;;;5015446;28;20044;-89
2023/12/04 03:37:43;;;;;;;5.05;1.20;;;10.00;77.10;;;;;;4997437;28;20208;-89
2023/12/04 03:40:10;;;;;;;3.38;1.10;;;10.00;77.10;;;;;;4995452;28;20033;-89
2023/12/04 03:42:36;;;;;;;4.55;0.90;;;10.00;77.10;;;;;;5015616;28;20026;-90
2023/12/04 03:45:03;;;;;;;3.10;1.13;;;10.00;77.10;;;;;;5015790;28;20026;-89
2023/12/04 03:47:30;;;;;;;4.30;1.90;;;10.00;77.10;;;;;;5011877;28;20586;-88
2023/12/04 03:49:56;;;;;;;3.45;1.15;;;10.00;77.10;;;;;;5014609;28;20029;-88
2023/12/04 03:52:22;;;;;;;2.45;0.85;;;10.00;77.10;;;;;;5018256;28;20081;-90
2023/12/04 03:54:48;;;;;;;2.55;1.00;;;10.00;77.10;;;;;;5011622;28;20030;-90
2023/12/04 03:57:14;;;;;;;3.42;1.10;;;10.00;77.10;;;;;;4995586;28;20132;-90
2023/12/04 03:59:40;;;;;;;2.65;1.10;;;10.00;77.10;;;;;;5008234;28;20510;-90
2023/12/04 04:02:09;;;;;;;2.63;1.00;;;10.00;77.10;;;;;;5011095;28;20022;-90
2023/12/04 04:04:38;;;;;;;4.57;1.20;;;9.90;76.90;;;;;;5011874;28;20261;-89
2023/12/04 04:07:03;;;;;;;4.95;1.05;;;9.90;76.90;;;;;;5008947;28;20041;-89
2023/12/04 04:09:30;;;;;;;2.63;1.00;;;9.90;76.90;;;;;;5015182;28;20427;-90
2023/12/04 04:11:56;;;;;;;5.22;0.98;;;9.90;77.00;;;;;;5016298;28;20069;-89
2023/12/04 04:14:23;;;;;;;4.82;1.17;;;9.80;76.80;;;;;;5023961;28;20061;-90
2023/12/04 04:16:49;;;;;;;3.45;1.10;;;9.80;76.80;;;;;;5015993;28;20038;-90
2023/12/04 04:19:14;;;;;;;1.67;0.60;;;9.80;76.80;;;;;;5012123;28;20049;-89
2023/12/04 04:21:40;;;;;;;7.45;1.83;;;9.80;76.80;;;;;;4999109;28;20022;-86
2023/12/04 04:24:06;;;;;;;2.10;0.70;;;9.80;76.80;;;;;;5033501;28;20022;-85
2023/12/04 04:26:32;;;;;;;3.80;1.25;;;9.70;76.70;;;;;;5035140;28;20040;-90
2023/12/04 04:28:58;;;;;;;3.72;1.10;;;9.70;76.70;;;;;;5033250;28;20021;-89
2023/12/04 04:31:26;;;;;;;3.60;0.77;;;9.70;76.60;;;;;;5032129;28;20065;-88
2023/12/04 04:33:56;;;;;;;3.00;0.70;;;9.70;76.60;;;;;;5020734;28;20026;-89
2023/12/04 04:36:23;;;;;;;2.53;0.70;;;9.60;76.40;;;;;;5033054;28;20044;-89
2023/12/04 04:38:50;;;;;;;6.03;1.25;;;9.60;76.40;;;;;;5036054;28;20033;-89
2023/12/04 04:41:17;;;;;;;1.35;0.70;;;9.60;76.40;;;;;;5016764;28;20025;-88
2023/12/04 04:43:43;;;;;;;2.47;1.42;;;9.60;76.40;;;;;;5015653;28;20030;-90
2023/12/04 04:46:11;;;;;;;2.25;0.80;;;9.60;76.40;;;;;;5017107;28;20026;-89
2023/12/04 04:48:37;;;;;;;15.90;2.40;;;9.60;76.40;;;;;;5003113;28;20050;-89
2023/12/04 04:51:03;;;;;;;3.90;1.35;;;9.60;76.40;;;;;;4998020;28;20061;-90
2023/12/04 04:53:29;;;;;;;2.25;0.80;;;9.50;76.20;;;;;;4993461;28;20058;-88
2023/12/04 04:55:55;;;;;;;2.15;0.70;;;9.50;76.30;;;;;;4990868;28;20034;-88
2023/12/04 04:58:21;;;;;;;3.05;1.13;;;9.50;76.30;;;;;;4991959;28;20080;-89
2023/12/04 05:00:50;;;;;;;3.03;1.27;;;9.50;76.30;;;;;;4991557;28;20121;-85
2023/12/04 05:03:16;;;;;;;3.65;0.98;;;9.50;76.30;;;;;;4992509;28;20100;-88
2023/12/04 05:05:42;;;;;;;6.65;1.25;;;9.50;76.30;;;;;;4989270;28;20432;-84
2023/12/04 05:08:11;;;;;;;4.22;1.85;;;9.50;76.30;;;;;;5010447;28;20049;-92
2023/12/04 05:10:40;;;;;;;3.17;0.70;;;9.50;76.40;;;;;;4990233;28;20349;-90
2023/12/04 05:13:07;;;;;;;4.05;1.10;;;9.40;76.20;;;;;;4995434;28;20519;-91
2023/12/04 05:15:34;;;;;;;3.75;1.25;;;9.40;76.30;;;;;;4990613;28;20038;-88
2023/12/04 05:18:00;;;;;;;3.85;1.08;;;9.50;76.50;;;;;;4992793;28;20493;-87
2023/12/04 05:20:27;;;;;;;3.05;1.13;;;9.40;76.30;;;;;;4998291;28;20030;-89
2023/12/04 05:22:52;;;;;;;4.43;2.35;;;9.50;76.50;;;;;;5001941;28;20034;-89
2023/12/04 05:25:19;;;;;;;3.40;1.02;;;9.50;76.50;;;;;;4996676;28;20088;-90
2023/12/04 05:27:45;;;;;;;3.42;1.10;;;9.50;76.50;;;;;;4997153;28;20028;-88
2023/12/04 05:30:12;;;;;;;3.45;1.40;;;9.50;76.50;;;;;;4992244;28;20038;-88
2023/12/04 05:32:37;;;;;;;3.63;1.20;;;9.40;76.40;;;;;;4971990;28;20026;-89
2023/12/04 05:35:05;;;;;;;3.40;1.33;;;9.40;76.40;;;;;;4995697;28;20049;-89
2023/12/04 05:37:32;;;;;;;3.88;1.30;;;9.50;76.60;;;;;;5001517;28;20511;-88
2023/12/04 05:39:58;;;;;;;4.43;1.60;;;9.50;76.50;;;;;;4977240;28;20031;-87
2023/12/04 05:42:24;;;;;;;5.03;1.58;;;9.50;76.60;;;;;;4993526;28;20681;-87
2023/12/04 05:44:50;;;;;;;3.55;1.35;;;9.50;76.60;;;;;;4992429;28;20034;-89
2023/12/04 05:47:19;;;;;;;6.25;2.03;;;9.50;76.60;;;;;;4999256;28;20491;-88
2023/12/04 05:49:45;;;;;;;3.40;2.20;;;9.50;76.60;;;;;;4985526;28;20042;-88
2023/12/04 05:52:11;;;;;;;5.75;1.65;;;9.50;76.60;;;;;;4987604;28;20143;-88
2023/12/04 05:54:37;;;;;;;3.72;1.25;;;9.50;76.60;;;;;;4991405;28;20532;-91
2023/12/04 05:57:03;;;;;;;4.28;1.50;;;9.40;76.50;;;;;;4992018;28;20039;-90
2023/12/04 05:59:29;;;;;;;3.42;1.10;;;9.50;76.70;;;;;;4995883;28;20026;-89
2023/12/04 06:01:59;;;;;;;2.17;1.05;;;9.40;76.50;;;;;;5005666;28;20030;-90
2023/12/04 06:04:26;;;;;;;3.75;1.23;;;9.50;76.70;;;;;;4989538;28;20041;-88
2023/12/04 06:06:52;;;;;;;2.45;1.27;;;9.50;76.70;;;;;;4984534;28;20038;-90
2023/12/04 06:09:18;;;;;;;5.15;1.77;;;9.40;76.50;;;;;;4990590;28;20042;-89
2023/12/04 06:11:44;;;;;;;3.22;1.20;;;9.40;76.60;;;;;;4990364;28;20042;-92
2023/12/04 06:14:10;;;;;;;2.80;1.10;;;9.50;76.80;;;;;;4992849;28;20393;-91
2023/12/04 06:16:37;;;;;;;3.03;1.35;;;9.50;76.80;;;;;;4990938;28;20485;-92
2023/12/04 06:19:04;;;;;;;2.92;1.52;;;9.50;76.80;;;;;;5002898;28;20402;-89
2023/12/04 06:21:31;;;;;;;1.77;1.25;;;9.50;76.80;;;;;;4987681;28;20446;-88
2023/12/04 06:24:00;;;;;;;2.33;1.30;;;9.50;76.90;;;;;;5007161;28;20472;-88
2023/12/04 06:26:36;;;;;;;1.80;1.17;;;9.50;76.80;;;;;;4992136;28;20089;-87
2023/12/04 06:29:02;;;;;;;7.50;1.48;;;9.50;76.90;;;;;;4991390;28;20038;-90
2023/12/04 06:31:30;;;;;;;4.35;1.65;;;9.50;76.80;;;;;;4987804;28;20038;-89
2023/12/04 06:33:58;;;;;;;2.30;1.17;;;9.50;76.90;;;;;;4988164;28;20415;-90
2023/12/04 06:36:29;;;;;;;2.40;1.17;;;9.50;76.90;;;;;;4990471;28;20568;-88
2023/12/04 06:38:59;;;;;;;4.80;2.10;;;9.50;76.90;;;;;;4992237;28;20042;-87
2023/12/04 06:41:27;;;;;;;4.63;1.88;;;9.50;76.90;;;;;;4990128;28;20108;-90
2023/12/04 06:43:54;;;;;;;2.92;1.83;;;9.50;76.90;;;;;;4992736;28;20030;-86
2023/12/04 06:46:25;;;;;;;2.65;1.17;;;9.50;76.90;;;;;;5010991;28;20048;-87
2023/12/04 06:48:57;;;;;;;4.10;1.65;;;9.60;77.20;;;;;;4990479;28;20058;-88
2023/12/04 06:51:27;;;;;;;3.80;2.53;;;9.60;77.20;;;;;;4982774;28;20030;-88
2023/12/04 06:53:54;;;;;;;4.30;1.80;;;9.60;77.60;;;;;;4979784;28;20499;-88
2023/12/04 06:56:22;;;;;;;3.50;1.92;;;9.60;77.10;;;;;;4958751;28;20042;-90
2023/12/04 06:58:48;;;;;;;5.32;1.80;;;9.60;77.20;;;;;;4966785;28;20042;-88
2023/12/04 07:01:14;;;;;;;4.72;2.20;;;9.50;77.00;;;;;;4980004;28;20035;-90
2023/12/04 07:03:41;;;;;;;4.50;2.38;;;9.50;77.00;;;;;;4974199;28;20044;-89
2023/12/04 07:06:07;;;;;;;4.20;2.20;;;9.50;77.00;;;;;;4990347;28;20054;-94
2023/12/04 07:08:33;;;;;;;4.97;1.85;;;9.50;77.10;;;;;;4987370;28;20532;-94
2023/12/04 07:10:59;;;;;;;7.15;3.20;;;9.50;77.10;;;;;;5018287;28;20038;-93
2023/12/04 07:13:25;;;;;;;9.48;3.20;;;9.50;77.20;;;;;;4982909;28;20057;-93
2023/12/04 07:15:51;;;;;;;8.93;2.75;;;9.50;77.30;;;;;;4998681;28;20313;-94
2023/12/04 07:18:20;;;;;;;9.07;3.17;;;9.50;77.30;;;;;;4983999;28;20068;-93
2023/12/04 07:20:52;;;;;;;6.22;2.20;;;9.60;77.50;;;;;;4996745;28;20037;-95
2023/12/04 07:23:18;;;;;;;10.13;2.08;;;9.60;77.50;;;;;;4996654;28;20109;-95
2023/12/04 07:25:44;;;;;;;5.50;2.45;;;9.60;77.50;;;;;;4999344;28;20042;-93
2023/12/04 07:28:18;;;;;;;5.63;2.03;;;9.60;77.50;;;;;;4990763;28;20408;-91
2023/12/04 07:30:44;;;;;;;9.00;2.97;;;9.60;77.50;;;;;;4993588;28;20330;-92
2023/12/04 07:33:09;;;;;;;3.33;1.80;;;9.60;78.00;;;;;;4993662;28;20044;-93
2023/12/04 07:35:36;;;;;;;8.32;2.20;;;9.60;77.50;;;;;;4974732;28;20030;-96
2023/12/04 07:38:03;;;;;;;3.75;1.83;;;9.60;77.50;;;;;;4991220;28;20038;-92
2023/12/04 07:40:37;;;;;;;4.57;1.65;;;9.70;77.70;;;;;;4992301;28;20093;-91
2023/12/04 07:43:04;;;;;;;6.63;2.03;;;9.70;77.70;;;;;;4980301;28;20034;-92
2023/12/04 07:45:31;;;;;;;4.88;2.13;;;9.60;77.60;;;;;;4987988;28;20038;-90
2023/12/04 07:47:57;;;;;;;5.03;2.10;;;9.70;77.80;;;;;;4973875;28;20050;-90
2023/12/04 07:50:24;;;;;;;3.85;1.83;;;9.70;77.80;;;;;;4987720;28;20513;-90
2023/12/04 07:52:50;;;;;;;3.83;1.83;;;9.70;77.80;;;;;;4998111;28;20266;-89
2023/12/04 07:55:16;;;;;;;3.72;1.88;;;9.70;77.80;;;;;;4994669;28;20049;-88
2023/12/04 07:57:45;;;;;;;5.20;1.58;;;9.70;77.80;;;;;;4991681;28;20263;-87
2023/12/04 08:00:12;;;;;;;5.60;1.90;;;9.70;77.80;;;;;;4986022;28;20045;-90
2023/12/04 08:02:39;;;;;;;7.13;1.67;;;9.70;77.80;;;;;;4985823;28;20034;-88
2023/12/04 08:05:06;;;;;;;5.03;2.20;;;9.70;77.90;;;;;;4990108;28;20023;-89
2023/12/04 08:07:32;;;;;;;3.90;1.90;;;9.70;77.80;;;;;;4989228;28;20030;-89
2023/12/04 08:10:02;;;;;;;6.20;2.10;;;9.70;77.90;;;;;;4995972;28;20034;-88
2023/12/04 08:12:28;;;;;;;7.40;2.20;;;9.70;77.90;;;;;;4993316;28;20037;-91
2023/12/04 08:14:54;;;;;;;6.20;1.65;;;9.70;77.90;;;;;;4995100;28;20034;-91
2023/12/04 08:17:22;;;;;;;5.07;2.63;;;9.70;77.90;;;;;;4992794;28;20645;-91
2023/12/04 08:19:49;;;;;;;3.17;1.70;;;9.70;77.90;;;;;;4980963;28;20030;-90
2023/12/04 08:22:16;;;;;;;3.80;1.90;;;9.70;77.90;;;;;;4999490;28;20042;-92
2023/12/04 08:24:43;;;;;;;4.82;1.70;;;9.80;78.10;;;;;;5000549;28;20093;-93
2023/12/04 08:27:09;;;;;;;2.45;1.63;;;9.80;78.10;;;;;;4997192;28;20030;-94
2023/12/04 08:29:35;;;;;;;4.38;2.15;;;9.80;78.10;;;;;;4979320;28;20041;-92
2023/12/04 08:32:01;;;;;;;3.55;1.88;;;9.70;77.90;;;;;;4989699;28;20031;-92
2023/12/04 08:34:27;;;;;;;4.38;1.90;;;9.80;78.10;;;;;;4994295;28;20044;-91
2023/12/04 08:36:55;;;;;;;4.10;1.77;;;9.80;78.10;;;;;;4994327;28;20652;-89
2023/12/04 08:39:22;;;;;;;3.83;1.88;;;9.80;78.10;;;;;;4996583;28;20043;-91
2023/12/04 08:41:50;;;;;;;4.38;1.90;;;9.80;78.10;;;;;;4988654;28;20026;-92
2023/12/04 08:44:16;;;;;;;4.60;2.00;;;9.80;78.10;;;;;;4990958;28;20038;-92
2023/12/04 08:46:44;;;;;;;4.10;2.05;;;9.80;78.10;;;;;;4999773;28;20027;-91
2023/12/04 08:49:10;;;;;;;3.33;2.00;;;9.80;78.20;;;;;;5004564;28;20054;-91
2023/12/04 08:51:37;;;;;;;4.63;1.80;;;9.80;78.10;;;;;;4991196;28;20041;-89
2023/12/04 08:54:07;;;;;;;4.93;2.60;;;9.80;78.10;;;;;;5010253;28;20030;-90
2023/12/04 08:56:33;;;;;;;3.95;2.25;;;9.90;78.30;;;;;;4992844;28;20034;-91
2023/12/04 08:59:00;;;;;;;3.53;1.95;;;9.80;78.10;;;;;;5006564;28;20532;-89
2023/12/04 09:01:28;;;;;;;2.88;2.17;;;9.90;78.50;;;;;;5009760;28;20096;-91
2023/12/04 09:03:55;;;;;;;2.38;1.90;;;9.80;78.10;;;;;;5011911;28;20408;-91
2023/12/04 09:06:22;;;;;;;4.03;2.42;;;9.90;78.30;;;;;;4994246;28;20121;-91
2023/12/04 09:08:47;;;;;;;3.13;2.10;;;9.90;78.30;;;;;;5011669;28;20036;-90
2023/12/04 09:11:14;;;;;;;5.60;2.42;;;9.90;78.30;;;;;;4979279;28;20045;-90
2023/12/04 09:13:41;;;;;;;4.28;2.42;;;9.90;78.30;;;;;;4996917;28;20038;-93
2023/12/04 09:16:08;;;;;;;6.88;3.20;;;9.90;78.30;;;;;;4995015;28;20038;-91
2023/12/04 09:18:34;;;;;;;4.05;2.60;;;9.90;78.30;;;;;;4989548;28;20103;-87
2023/12/04 09:21:00;;;;;;;5.65;2.42;;;9.90;78.30;;;;;;4970351;28;20022;-89
2023/12/04 09:23:26;;;;;;;4.22;2.97;;;9.90;78.20;;;;;;4993733;28;20073;-88
2023/12/04 09:25:53;;;;;;;4.18;2.08;;;9.90;78.30;;;;;;5006992;28;20099;-88
2023/12/04 09:28:20;;;;;;;3.92;2.47;;;9.90;78.20;;;;;;5004676;28;20483;-89
2023/12/04 09:30:46;;;;;;;4.97;2.45;;;10.00;78.40;;;;;;4989654;28;20034;-87
2023/12/04 09:33:12;;;;;;;4.38;2.40;;;10.00;78.30;;;;;;5005935;28;20037;-88
2023/12/04 09:35:38;;;;;;;4.43;2.00;;;10.00;78.30;;;;;;5008061;28;20033;-89
2023/12/04 09:38:08;;;;;;;2.53;1.90;;;10.00;78.30;;;;;;4991945;28;20022;-86
2023/12/04 09:40:34;;;;;;;3.80;1.80;;;10.00;78.30;;;;;;5022546;28;20022;-89
2023/12/04 09:43:05;;;;;;;2.65;1.70;;;10.00;78.30;;;;;;5011687;28;20036;-90
2023/12/04 09:45:32;;;;;;;2.67;1.73;;;10.00;78.30;;;;;;5013180;28;20381;-88
2023/12/04 09:47:59;;;;;;;2.42;1.60;;;10.00;78.30;;;;;;5008033;28;20069;-84
2023/12/04 09:50:25;;;;;;;3.03;1.83;;;10.00;78.20;;;;;;5007177;28;20151;-87
2023/12/04 09:52:55;;;;;;;2.22;1.70;;;10.00;78.20;;;;;;5009107;28;20026;-89
2023/12/04 09:55:22;;;;;;;4.50;2.13;;;10.00;78.20;;;;;;4981753;28;20121;-89
2023/12/04 09:57:49;;;;;;;2.30;1.90;;;10.10;78.40;;;;;;4987948;28;20038;-89
2023/12/04 10:00:15;;;;;;;3.75;2.50;;;10.00;78.20;;;;;;4988627;28;20169;-89
2023/12/04 10:02:45;;;;;;;4.57;2.80;;;10.10;78.90;;;;;;4972630;28;20088;-86
2023/12/04 10:05:12;;;;;;;3.40;2.75;;;10.10;78.30;;;;;;4983431;28;20042;-88
2023/12/04 10:07:39;;;;;;;3.13;2.83;;;10.10;78.30;;;;;;4966471;28;20161;-91
2023/12/04 10:10:05;;;;;;;6.47;3.10;;;10.10;78.30;;;;;;4972381;28;20109;-91
2023/12/04 10:12:35;;;;;;;4.47;3.17;;;10.10;78.30;;;;;;4989435;28;20077;-91
2023/12/04 10:15:06;;;;;;;3.30;3.00;;;10.10;78.30;;;;;;4986216;28;20034;-90
2023/12/04 10:17:35;;;;;;;4.75;3.55;;;10.10;78.30;;;;;;4971779;28;20057;-89
2023/12/04 10:20:17;;;;;;;4.18;3.75;;;10.10;78.20;;;;;;4968121;28;20039;-91
2023/12/04 10:22:56;;;;;;;3.88;3.40;;;10.10;78.20;;;;;;4985274;28;20026;-90
2023/12/04 10:25:28;;;;;;;4.00;3.60;;;10.10;78.20;;;;;;4987119;28;20049;-92
2023/12/04 10:28:06;;;;;;;3.97;3.50;;;10.20;78.30;;;;;;4974427;28;20042;-89
2023/12/04 10:30:32;;;;;;;4.00;3.40;;;10.10;78.00;;;;;;4995221;28;20066;-87
2023/12/04 10:33:00;;;;;;;3.70;3.40;;;10.20;78.20;;;;;;4988581;28;20485;-88
2023/12/04 10:35:31;;;;;;;3.55;3.22;;;10.20;78.20;;;;;;4987287;28;20567;-89
2023/12/04 10:37:59;;;;;;;2.92;2.72;;;10.20;78.10;;;;;;4993043;28;20033;-91
2023/12/04 10:40:37;;;;;;;4.80;3.20;;;10.20;78.10;;;;;;4987024;28;20490;-90
2023/12/04 10:43:11;;;;;;;3.28;2.97;;;10.30;78.20;;;;;;4972200;28;20038;-90
2023/12/04 10:45:42;;;;;;;3.00;2.70;;;10.30;78.20;;;;;;4985985;28;20018;-91
2023/12/04 10:48:10;;;;;;;3.45;2.60;;;10.30;78.10;;;;;;5001364;28;20052;-90
2023/12/04 10:50:38;;;;;;;3.38;3.08;;;10.30;78.10;;;;;;4973829;28;20499;-90
2023/12/04 10:53:05;;;;;;;3.45;2.60;;;10.30;78.00;;;;;;4989594;28;20042;-91
2023/12/04 10:55:32;;;;;;;3.75;2.78;;;10.40;78.20;;;;;;5012680;28;20037;-92
2023/12/04 10:58:01;;;;;;;2.80;2.58;;;10.30;78.00;;;;;;4990060;28;20049;-90
2023/12/04 11:00:29;;;;;;;2.85;2.65;;;10.40;78.10;;;;;;4991678;28;20030;-91
2023/12/04 11:03:04;;;;;;;2.70;2.50;;;10.40;78.00;;;;;;5010540;28;20038;-91
2023/12/04 11:05:40;;;;;;;3.53;2.35;;;10.50;78.20;;;;;;5011434;28;20037;-90
2023/12/04 11:08:11;;;;;;;3.03;2.42;;;10.40;77.90;;;;;;5011704;28;20037;-89
2023/12/04 11:10:55;;;;;;;2.17;1.70;;;10.50;78.00;;;;;;5004299;28;20112;-90
2023/12/04 11:13:28;;;;;;;2.67;1.50;;;10.50;77.90;;;;;;4993703;28;20049;-89
2023/12/04 11:16:00;;;;;;;1.95;1.42;;;10.50;77.80;;;;;;5010691;28;20238;-89
2023/12/04 11:18:30;;;;;;;2.42;1.48;;;10.50;77.80;;;;;;4991617;28;20050;-91
2023/12/04 11:21:01;;;;;;;1.17;1.00;;;10.50;77.80;;;;;;5003140;28;20102;-90
2023/12/04 11:23:29;;;;;;;3.33;1.40;;;10.50;77.80;;;;;;4973464;28;20551;-91
2023/12/04 11:25:56;;;;;;;3.00;1.05;;;10.50;77.70;;;;;;5004986;28;20034;-92
2023/12/04 11:28:23;;;;;;;1.35;1.15;;;10.50;77.70;;;;;;4986791;28;20587;-87
2023/12/04 11:30:50;;;;;;;1.23;1.10;;;10.50;77.60;;;;;;5006442;28;20026;-88
2023/12/04 11:33:18;;;;;;;0.90;0.82;;;10.50;77.60;;;;;;5005571;28;20049;-87
2023/12/04 11:35:44;;;;;;;3.10;1.20;;;10.50;77.60;;;;;;5004758;28;20388;-88
2023/12/04 11:38:13;;;;;;;1.30;1.02;;;10.50;77.60;;;;;;5001081;28;20057;-89
2023/12/04 11:40:45;;;;;;;1.23;0.90;;;10.60;77.60;;;;;;5004140;28;20034;-89
2023/12/04 11:43:25;;;;;;;2.30;0.90;;;10.50;77.30;;;;;;4989674;28;20263;-94
2023/12/04 11:45:52;;;;;;;1.73;0.90;;;10.60;77.50;;;;;;5014111;28;20453;-93
2023/12/04 11:48:23;;;;;;;1.60;1.05;;;10.60;77.40;;;;;;5000745;28;20054;-90
2023/12/04 11:50:50;;;;;;;1.25;0.80;;;10.60;77.30;;;;;;4982099;28;20034;-90
2023/12/04 11:53:17;;;;;;;0.85;0.80;;;10.60;77.20;;;;;;4978283;28;20117;-94
2023/12/04 11:55:43;;;;;;;1.05;0.70;;;10.50;76.90;;;;;;4980393;28;20041;-89
2023/12/04 11:58:12;;;;;;;1.17;0.80;;;10.60;77.10;;;;;;4988216;28;20038;-88
2023/12/04 12:00:42;;;;;;;1.23;0.93;;;10.50;76.80;;;;;;4994195;28;20030;-91
2023/12/04 12:03:09;;;;;;;2.97;1.58;;;10.50;76.70;;;;;;4977173;28;20046;-89
2023/12/04 12:05:38;;;;;;;0.70;0.70;;;10.60;76.80;;;;;;4971395;28;20076;-90
2023/12/04 12:08:09;;;;;;;0.63;0.60;;;10.50;76.60;;;;;;4991088;28;20061;-91
2023/12/04 12:10:35;;;;;;;1.38;0.75;;;10.50;76.50;;;;;;4993754;28;20100;-90
2023/12/04 12:13:01;;;;;;;0.60;0.50;;;10.50;76.50;;;;;;4979401;28;20476;-93
2023/12/04 12:15:33;;;;;;;1.17;0.70;;;10.50;76.50;;;;;;4983276;28;20037;-92
2023/12/04 12:18:06;;;;;;;2.13;0.90;;;10.40;76.20;;;;;;4977459;28;20046;-91
2023/12/04 12:20:37;;;;;;;1.08;0.75;;;10.40;76.30;;;;;;4994303;28;20033;-91
2023/12/04 12:23:03;;;;;;;0.98;0.60;;;10.40;76.00;;;;;;4990992;28;20037;-94
2023/12/04 12:25:29;;;;;;;2.75;0.68;;;10.40;76.00;;;;;;4990904;28;20555;-91
2023/12/04 12:27:55;;;;;;;0.52;0.52;;;10.40;75.90;;;;;;4982562;28;20054;-90
2023/12/04 12:30:21;;;;;;;0.65;0.52;;;10.40;75.80;;;;;;4991659;28;20039;-88
2023/12/04 12:32:47;;;;;;;0.55;0.50;;;10.30;75.60;;;;;;4991406;28;20019;-89
2023/12/04 12:35:13;;;;;;;1.00;0.77;;;10.30;75.60;;;;;;4970192;28;20042;-88
2023/12/04 12:37:39;;;;;;;0.70;0.70;;;10.30;75.60;;;;;;4980499;28;20030;-89
2023/12/04 12:40:09;;;;;;;0.82;0.70;;;10.30;75.60;;;;;;4962671;28;20034;-89
2023/12/04 12:42:41;;;;;;;0.50;0.50;;;10.30;75.60;;;;;;4978085;28;20028;-89
2023/12/04 12:45:11;;;;;;;0.45;0.45;;;10.20;75.80;;;;;;4980661;28;20030;-89
2023/12/04 12:47:38;;;;;;;0.57;0.40;;;10.20;75.30;;;;;;4991214;28;20030;-87
2023/12/04 12:50:07;;;;;;;1.58;0.80;;;10.20;75.30;;;;;;4990945;28;20106;-87
2023/12/04 12:52:33;;;;;;;1.73;1.10;;;10.20;75.30;;;;;;4991347;28;20037;-88
2023/12/04 12:54:59;;;;;;;0.73;0.68;;;10.20;75.30;;;;;;4956115;28;20072;-88